Marshfield, WI (54404)

8:15 AM CDT on March 30, 2017 (GMT -0500)
2nd St | | Change Station

Elev 1221 ft 44.64 °N, 90.10 °W | Updated 46 seconds ago

Light Snow
Light Snow Mist
33.8 °F
Feels Like 30 °F
N
4.0
Wind Variable Wind from East
Gusts 4.0 mph

Today
High -- | Low -- °F
--% Chance of Precip.
Yesterday
High -- | Low -- °F
Precip. -- in
Pressure 29.98 in
Visibility 2.5 miles
Clouds Overcast 500 ft
Windchill 30 °F
Dew Point 28 °F
Humidity 78%
Rainfall 0.02 in
Snow Depth Not available.
6:44 AM 7:26 PM
Waxing Crescent, 8% visible
METAR KMFI 301254Z AUTO 07013KT 2 1/2SM -SN BR OVC005 01/00 A2994 RMK AO2 UPB36E52SNB52 SLP151 P0000 T00110000
Pressure 29.98 in
Visibility 2.5 miles
Clouds Overcast 500 ft
Windchill 30 °F
Dew Point 28 °F
Humidity 78%
Rainfall 0.02 in
Snow Depth Not available.
6:44 AM 7:26 PM
Waxing Crescent, 8% visible
METAR KMFI 301254Z AUTO 07013KT 2 1/2SM -SN BR OVC005 01/00 A2994 RMK AO2 UPB36E52SNB52 SLP151 P0000 T00110000

Get Severe Weather Alerts

Thanks for signing up!

Be on the lookout for a verification email in your inbox.

You'll start receiving the daily forecast at 8 AM.

×

10-Day Weather Forecast

Almanac

Astronomy

Mar. 30, 2017 Rise Set
Actual Time
Civil Twilight
Nautical Twilight
Astronomical Twilight
Moon
Length of Visible Light
Length of Day
Tomorrow will be .
, % of the Moon is Illuminated

Today's Extremes

State Highs State Lows

Community

WunderPhotos

Upload Photos

1,962,540 photos uploaded!

WunderBlog® & News

Nearby

Air Quality

  Air Quality AQ Index Pollutant
Not available.

Snow Depth

Station Depth Elevation

Earthquake Activity

City Distance Mag. Time & Date
Minimum magnitude displayed is 2.5.

Earthquake Activity

City Distance Mag. Time & Date
Minimum magnitude displayed is 2.5.

Coastal Water Temperatures

Place Temperature

Stations

Nearby Weather Stations

Station Location Temp. Windchill Dew Point Humidity Wind Precip. Elev Updated Type
                   

Watches & Warnings

There are currently no watches in effect.